Time;durP1;ratioP1;P1;durP2;ratioP2;P2;SDS_P1;SDS_P2;PMS_P1;PMS_P2;Temp;Humidity;BMP_temperature;BMP_pressure;BME280_temperature;BME280_humidity;BME280_pressure;Samples;Min_cycle;Max_cycle;Signal;HPM_P1;HPM_P2
2022/12/21 00:01:20;;;;;;;167.32;42.75;;;;;;;7.83;100.00;101062.16;5055513;28;20429;-87
2022/12/21 00:03:45;;;;;;;199.35;42.40;;;;;;;7.78;100.00;101044.00;5054204;28;20048;-88
2022/12/21 00:06:11;;;;;;;288.00;44.35;;;;;;;7.80;100.00;101038.81;5054953;28;20460;-88
2022/12/21 00:08:41;;;;;;;561.00;55.30;;;;;;;7.82;100.00;101044.84;5043437;28;20113;-88
2022/12/21 00:11:07;;;;;;;219.63;40.38;;;;;;;7.79;100.00;101045.75;5052397;28;20036;-87
2022/12/21 00:13:32;;;;;;;265.83;42.80;;;;;;;7.82;100.00;101045.72;5054161;28;20028;-87
2022/12/21 00:15:59;;;;;;;310.25;47.05;;;;;;;7.82;100.00;101044.84;5053077;28;20021;-88
2022/12/21 00:18:25;;;;;;;307.10;44.38;;;;;;;7.80;100.00;101050.03;5053605;28;20021;-88
2022/12/21 00:20:58;;;;;;;165.60;42.00;;;;;;;7.73;100.00;101048.38;5054737;28;20029;-88
2022/12/21 00:23:23;;;;;;;463.60;52.65;;;;;;;7.76;100.00;101047.50;5054815;28;20021;-88
2022/12/21 00:25:48;;;;;;;263.90;45.50;;;;;;;7.70;100.00;101040.63;5053726;28;20464;-88
2022/12/21 00:28:14;;;;;;;226.90;42.28;;;;;;;7.67;100.00;101040.66;5054793;28;20030;-88
2022/12/21 00:30:39;;;;;;;252.82;44.22;;;;;;;7.73;100.00;101051.84;5054638;28;20392;-88
2022/12/21 00:33:04;;;;;;;168.40;41.08;;;;;;;7.71;100.00;101048.38;5053625;28;20053;-88
2022/12/21 00:35:29;;;;;;;170.60;43.10;;;;;;;7.72;100.00;101060.50;5053867;28;20074;-88
2022/12/21 00:37:55;;;;;;;210.77;44.88;;;;;;;7.73;100.00;101046.66;5052403;28;20033;-88
2022/12/21 00:40:20;;;;;;;187.77;46.58;;;;;;;7.73;100.00;101050.97;5052974;28;20029;-88
2022/12/21 00:42:45;;;;;;;156.38;43.95;;;;;;;7.70;100.00;101051.84;5052839;28;20033;-88
2022/12/21 00:45:10;;;;;;;134.35;40.13;;;;;;;7.58;100.00;101030.34;5051565;28;20634;-88
2022/12/21 00:47:36;;;;;;;181.25;41.78;;;;;;;7.69;100.00;101052.75;5053055;28;20033;-87
2022/12/21 00:50:01;;;;;;;235.98;47.83;;;;;;;7.70;100.00;101061.38;5052785;28;20507;-87
2022/12/21 00:52:27;;;;;;;209.57;45.10;;;;;;;7.68;100.00;101055.34;5052492;28;20036;-87
2022/12/21 00:54:52;;;;;;;193.48;44.35;;;;;;;7.67;100.00;101051.88;5052675;28;20028;-87
2022/12/21 00:57:17;;;;;;;168.85;45.42;;;;;;;7.66;100.00;101057.94;5053355;28;20115;-87
2022/12/21 00:59:43;;;;;;;200.77;47.90;;;;;;;7.62;100.00;101053.66;5053174;28;20025;-88
2022/12/21 01:02:08;;;;;;;257.83;48.67;;;;;;;7.61;100.00;101059.72;5053791;28;20114;-88
2022/12/21 01:04:33;;;;;;;271.05;48.20;;;;;;;7.64;100.00;101056.25;5054021;28;20025;-87
2022/12/21 01:06:59;;;;;;;429.38;51.47;;;;;;;7.69;100.00;101062.25;5050941;28;20067;-87
2022/12/21 01:09:24;;;;;;;382.05;49.70;;;;;;;7.62;100.00;101069.25;5054025;28;20060;-88
2022/12/21 01:11:49;;;;;;;223.10;45.60;;;;;;;7.68;100.00;101076.97;5053956;28;20013;-88
2022/12/21 01:14:15;;;;;;;257.58;45.97;;;;;;;7.60;100.00;101068.38;5050983;28;20239;-87
2022/12/21 01:16:40;;;;;;;197.48;43.25;;;;;;;7.53;100.00;101060.66;5053039;28;20044;-88
2022/12/21 01:19:06;;;;;;;147.63;41.17;;;;;;;7.61;100.00;101083.06;5053582;28;20070;-87
2022/12/21 01:21:32;;;;;;;201.50;46.10;;;;;;;7.61;100.00;101071.81;5052786;28;20469;-88
2022/12/21 01:24:01;;;;;;;245.07;47.95;;;;;;;7.61;100.00;101072.69;5041656;28;20104;-87
2022/12/21 01:26:28;;;;;;;277.45;45.70;;;;;;;7.63;100.00;101078.72;5048962;28;20106;-88
2022/12/21 01:28:53;;;;;;;313.30;47.53;;;;;;;7.62;100.00;101068.34;5053004;28;20021;-88
2022/12/21 01:31:19;;;;;;;215.73;42.58;;;;;;;7.60;100.00;101067.53;5053191;28;20028;-88
2022/12/21 01:33:44;;;;;;;278.23;42.20;;;;;;;7.61;100.00;101079.59;5053251;28;20022;-87
2022/12/21 01:36:15;;;;;;;155.63;39.80;;;;;;;7.53;100.00;101081.41;5052479;28;20017;-88
2022/12/21 01:38:42;;;;;;;156.68;41.40;;;;;;;7.50;100.00;101082.28;5053325;28;20052;-88
2022/12/21 01:41:12;;;;;;;509.67;60.40;;;;;;;7.56;100.00;101095.22;5053535;28;20376;-88
2022/12/21 01:43:42;;;;;;;247.23;48.22;;;;;;;7.56;100.00;101095.22;5053067;28;20037;-88
2022/12/21 01:46:11;;;;;;;261.75;48.58;;;;;;;7.46;100.00;101078.84;5039305;28;20033;-87
2022/12/21 01:48:48;;;;;;;291.63;48.53;;;;;;;7.55;100.00;101101.25;5052497;28;20021;-88
2022/12/21 01:51:14;;;;;;;222.85;47.00;;;;;;;7.54;100.00;101102.16;5053287;28;20053;-88
2022/12/21 01:53:47;;;;;;;211.13;44.40;;;;;;;7.54;100.00;101094.34;5053116;28;20087;-88
2022/12/21 01:56:15;;;;;;;231.27;47.08;;;;;;;7.57;100.00;101096.09;5052303;28;20036;-88
2022/12/21 01:58:41;;;;;;;252.63;48.22;;;;;;;7.43;100.00;101071.09;5052908;28;20025;-88
2022/12/21 02:01:06;;;;;;;180.80;43.00;;;;;;;7.53;100.00;101084.88;5052935;28;20028;-87
2022/12/21 02:03:40;;;;;;;240.70;44.53;;;;;;;7.46;100.00;101078.00;5052444;28;20036;-88
2022/12/21 02:06:12;;;;;;;186.60;43.97;;;;;;;7.51;100.00;101086.59;5052639;28;20067;-88
2022/12/21 02:08:40;;;;;;;191.00;40.80;;;;;;;7.53;100.00;101084.00;5052625;28;20472;-88
2022/12/21 02:11:07;;;;;;;345.55;47.95;;;;;;;7.49;100.00;101083.16;5048904;28;20117;-88
2022/12/21 02:13:32;;;;;;;183.60;43.35;;;;;;;7.54;100.00;101080.53;5036830;28;20464;-89
2022/12/21 02:16:19;;;;;;;391.33;49.53;;;;;;;7.33;100.00;101045.25;5052424;28;20048;-88
2022/12/21 02:19:09;;;;;;;741.03;62.53;;;;;;;7.46;100.00;101078.84;5051755;28;20052;-88
2022/12/21 02:21:44;;;;;;;265.95;45.17;;;;;;;7.48;100.00;101084.03;5052625;28;20021;-88
2022/12/21 02:24:40;;;;;;;339.35;47.25;;;;;;;7.49;100.00;101085.78;5052078;28;20075;-88
2022/12/21 02:27:43;;;;;;;428.10;48.10;;;;;;;7.49;100.00;101080.56;5050221;28;20040;-88
2022/12/21 02:30:14;;;;;;;772.72;65.38;;;;;;;7.42;100.00;101081.47;5049943;28;20025;-87
2022/12/21 02:33:07;;;;;;;584.58;58.90;;;;;;;7.33;100.00;101064.25;5039461;28;20024;-88
2022/12/21 02:35:57;;;;;;;353.02;48.85;;;;;;;7.37;100.00;101071.13;5052483;28;20036;-88
2022/12/21 02:38:32;;;;;;;196.30;39.30;;;;;;;7.41;100.00;101082.34;5044767;28;20029;-88
2022/12/21 02:41:16;;;;;;;176.05;40.13;;;;;;;7.38;100.00;101087.56;5052187;28;20021;-88
2022/12/21 02:44:13;;;;;;;146.63;40.60;;;;;;;7.28;100.00;101076.38;5051938;28;20059;-88
2022/12/21 02:47:03;;;;;;;225.80;43.42;;;;;;;7.25;100.00;101061.69;5041013;28;20036;-89
2022/12/21 02:49:52;;;;;;;164.45;41.85;;;;;;;7.36;100.00;101071.16;5052191;28;20380;-87
2022/12/21 02:52:17;;;;;;;194.85;46.45;;;;;;;7.36;100.00;101063.38;5051388;28;20155;-88
2022/12/21 02:54:44;;;;;;;326.17;50.17;;;;;;;7.34;100.00;101059.91;5052319;28;20483;-88
2022/12/21 02:57:10;;;;;;;315.13;50.40;;;;;;;7.36;100.00;101065.97;5052316;28;20384;-88
2022/12/21 02:59:42;;;;;;;274.65;48.72;;;;;;;7.21;100.00;101057.41;5051579;28;20017;-88
2022/12/21 03:07:23;;;;;;;362.33;54.80;;;;;;;7.34;100.00;101072.88;5449637;23;20049;-89
2022/12/21 03:10:01;;;;;;;292.63;53.25;;;;;;;7.36;100.00;101066.81;5019819;28;20037;-88
2022/12/21 03:12:39;;;;;;;260.73;49.85;;;;;;;7.37;100.00;101067.69;5044485;28;20120;-88
2022/12/21 03:15:17;;;;;;;268.08;51.40;;;;;;;7.36;100.00;101064.22;5051749;28;20512;-87
2022/12/21 03:18:12;;;;;;;290.02;53.95;;;;;;;7.38;100.00;101064.22;5050589;28;20021;-88
2022/12/21 03:20:46;;;;;;;285.30;52.85;;;;;;;7.37;100.00;101058.16;4994560;28;20042;-88
2022/12/21 03:23:38;;;;;;;322.23;56.20;;;;;;;7.27;100.00;101043.53;5052360;22;20057;-87
2022/12/21 03:26:16;;;;;;;175.68;51.78;;;;;;;7.20;100.00;101034.94;5050821;28;20033;-89
2022/12/21 03:28:50;;;;;;;376.33;60.92;;;;;;;7.20;100.00;101019.38;5048128;28;20059;-88
2022/12/21 03:31:20;;;;;;;242.65;53.58;;;;;;;7.36;100.00;101040.88;5052234;28;20029;-86
2022/12/21 03:33:56;;;;;;;626.92;70.97;;;;;;;7.27;100.00;101036.63;5048957;28;20029;-86
2022/12/21 03:36:36;;;;;;;265.80;52.40;;;;;;;7.32;100.00;101059.91;5051394;28;20480;-87
2022/12/21 03:39:06;;;;;;;387.50;59.17;;;;;;;7.31;100.00;101057.34;5048123;28;20838;-87
2022/12/21 03:41:42;;;;;;;257.65;55.30;;;;;;;7.27;100.00;101054.78;5049341;28;20028;-86
2022/12/21 03:44:13;;;;;;;312.02;55.75;;;;;;;7.33;100.00;101066.00;5049018;28;20032;-87
2022/12/21 03:46:50;;;;;;;243.00;52.53;;;;;;;7.28;100.00;101042.66;5051205;28;20541;-87
2022/12/21 03:49:34;;;;;;;280.90;55.65;;;;;;;7.21;100.00;101039.25;5050807;28;20104;-86
2022/12/21 03:52:08;;;;;;;;;;;;;;;7.36;100.00;101058.19;5055203;28;20056;-86
2022/12/21 03:54:41;;;;;;;219.05;50.30;;;;;;;7.35;100.00;101051.25;5041420;28;19912;-86
2022/12/21 03:57:09;;;;;;;240.18;52.75;;;;;;;7.34;100.00;101047.81;5053493;28;20029;-87
2022/12/21 03:59:37;;;;;;;225.13;50.90;;;;;;;7.33;100.00;101060.81;5053824;28;20100;-87
2022/12/21 04:02:11;;;;;;;250.13;52.22;;;;;;;7.33;100.00;101064.25;5052828;28;20075;-87
2022/12/21 04:04:52;;;;;;;199.50;50.35;;;;;;;7.25;100.00;101037.50;5054186;28;20032;-87
2022/12/21 04:07:24;;;;;;;178.27;49.22;;;;;;;7.26;100.00;101034.91;5054407;28;20083;-88
2022/12/21 04:09:56;;;;;;;180.30;48.50;;;;;;;7.32;100.00;101053.88;5052084;28;20096;-87
2022/12/21 04:12:39;;;;;;;164.25;45.28;;;;;;;7.21;100.00;101038.38;5054398;28;20037;-88
2022/12/21 04:15:09;;;;;;;167.68;44.53;;;;;;;7.25;100.00;101047.88;5053771;28;20383;-87
2022/12/21 04:17:35;;;;;;;170.23;43.50;;;;;;;7.22;100.00;101040.97;5053583;28;20029;-88
2022/12/21 04:20:02;;;;;;;135.77;40.75;;;;;;;7.19;100.00;101043.59;5048384;28;20445;-88
2022/12/21 04:28:07;;;;;;;154.63;39.20;;;;;;;7.14;100.00;101052.28;5054127;28;20063;-88
2022/12/21 04:30:37;;;;;;;128.43;38.55;;;;;;;7.02;100.00;101038.50;5053287;28;20083;-88
2022/12/21 04:33:04;;;;;;;192.60;40.42;;;;;;;7.07;100.00;101060.97;5053766;28;20139;-88
2022/12/21 04:35:29;;;;;;;114.85;36.67;;;;;;;6.99;100.00;101048.00;5053775;28;20036;-88
2022/12/21 04:37:54;;;;;;;135.60;37.58;;;;;;;7.05;100.00;101048.00;5052143;28;20112;-88
2022/12/21 04:40:20;;;;;;;108.32;38.00;;;;;;;7.00;100.00;101044.56;5054026;28;20412;-88
2022/12/21 04:42:45;;;;;;;108.15;37.22;;;;;;;6.97;100.00;101036.81;5049744;28;20060;-88
2022/12/21 04:45:11;;;;;;;107.97;37.00;;;;;;;6.99;100.00;101035.06;5053573;28;20550;-88
2022/12/21 04:47:36;;;;;;;134.10;39.22;;;;;;;6.87;100.00;101014.41;5054287;28;20116;-88
2022/12/21 04:50:02;;;;;;;184.93;40.72;;;;;;;6.97;100.00;101042.00;5054248;28;20025;-87
2022/12/21 04:52:27;;;;;;;172.00;38.10;;;;;;;6.89;100.00;101028.22;5053556;28;20051;-87
2022/12/21 04:54:52;;;;;;;199.55;44.33;;;;;;;6.96;100.00;101035.94;5054229;28;20064;-87
2022/12/21 04:57:18;;;;;;;144.55;40.08;;;;;;;6.85;100.00;101010.97;5054326;28;20033;-88
2022/12/21 04:59:44;;;;;;;184.80;40.67;;;;;;;6.95;100.00;101042.00;5051737;28;20063;-88
2022/12/21 05:02:10;;;;;;;147.15;37.38;;;;;;;6.95;100.00;101038.53;5053887;28;20484;-87
2022/12/21 05:04:35;;;;;;;146.35;39.08;;;;;;;6.90;100.00;101038.59;5053837;28;20029;-87
2022/12/21 05:07:01;;;;;;;149.68;38.55;;;;;;;6.87;100.00;101033.41;5053475;28;20033;-87
2022/12/21 05:09:26;;;;;;;187.98;38.90;;;;;;;6.87;100.00;101043.78;5054122;28;20112;-88
2022/12/21 05:11:53;;;;;;;113.75;37.22;;;;;;;6.83;100.00;101044.63;5053904;28;20393;-87
2022/12/21 05:14:18;;;;;;;117.60;35.58;;;;;;;6.84;100.00;101048.13;5053131;28;20045;-88
2022/12/21 05:16:44;;;;;;;117.53;36.00;;;;;;;6.75;100.00;101036.06;5053544;28;20060;-88
2022/12/21 05:19:09;;;;;;;126.90;35.33;;;;;;;6.75;100.00;101036.91;5054049;28;20017;-88
2022/12/21 05:21:34;;;;;;;98.68;33.75;;;;;;;6.78;100.00;101043.81;5053137;28;20442;-87
2022/12/21 05:24:00;;;;;;;122.68;34.17;;;;;;;6.77;100.00;101037.78;5053337;28;20037;-88
2022/12/21 05:26:25;;;;;;;111.68;33.38;;;;;;;6.69;100.00;101023.97;5052545;28;20525;-87
2022/12/21 05:28:50;;;;;;;142.35;36.20;;;;;;;6.76;100.00;101028.25;5053234;28;20032;-88
2022/12/21 05:31:16;;;;;;;113.95;34.35;;;;;;;6.76;100.00;101023.06;5053449;28;20031;-88
2022/12/21 05:33:41;;;;;;;91.32;31.33;;;;;;;6.76;100.00;101033.44;5052457;28;20110;-87
2022/12/21 05:36:10;;;;;;;94.47;31.55;;;;;;;6.75;100.00;101036.06;5053704;28;20108;-88
2022/12/21 05:38:35;;;;;;;92.00;30.85;;;;;;;6.74;100.00;101037.78;5052434;28;20032;-87
2022/12/21 05:41:01;;;;;;;98.88;30.83;;;;;;;6.71;100.00;101027.44;5040866;28;20255;-87
2022/12/21 05:43:26;;;;;;;120.25;31.92;;;;;;;6.72;100.00;101031.75;5053438;28;20545;-88
2022/12/21 05:45:52;;;;;;;91.35;29.27;;;;;;;6.71;100.00;101032.63;5052968;28;20376;-87
2022/12/21 05:48:18;;;;;;;82.60;28.70;;;;;;;6.70;100.00;101043.88;5051655;28;20068;-87
2022/12/21 05:50:43;;;;;;;85.85;28.48;;;;;;;6.65;100.00;101032.66;5052792;28;20060;-88
2022/12/21 05:53:09;;;;;;;77.82;27.25;;;;;;;6.61;100.00;101022.31;5052516;28;20033;-88
2022/12/21 05:55:34;;;;;;;87.13;26.70;;;;;;;6.59;100.00;101024.91;5051406;28;20041;-88
2022/12/21 05:58:00;;;;;;;92.93;27.13;;;;;;;6.54;100.00;101019.75;5039111;28;20025;-88
2022/12/21 06:00:25;;;;;;;85.93;26.80;;;;;;;6.53;100.00;101019.72;5052951;28;20021;-87
2022/12/21 06:02:50;;;;;;;102.45;26.33;;;;;;;6.50;100.00;101022.34;5052173;28;20028;-87
2022/12/21 06:05:16;;;;;;;80.13;25.75;;;;;;;6.48;100.00;101008.56;5052889;28;20029;-87
2022/12/21 06:07:41;;;;;;;71.20;23.20;;;;;;;6.44;100.00;100994.75;5052841;28;20028;-88
2022/12/21 06:10:07;;;;;;;63.78;21.77;;;;;;;6.43;100.00;101000.78;5052233;28;20025;-87
2022/12/21 06:12:33;;;;;;;65.28;21.85;;;;;;;6.50;100.00;101014.56;5052353;28;20017;-87
2022/12/21 06:14:59;;;;;;;65.43;20.70;;;;;;;6.47;100.00;101019.75;5033449;28;20469;-87
2022/12/21 06:17:28;;;;;;;60.60;20.95;;;;;;;6.45;100.00;101013.75;5043074;28;20028;-88
2022/12/21 06:23:28;;;;;;;54.42;19.58;;;;;;;6.26;100.00;100999.97;4954155;28;20506;-87
2022/12/21 06:25:55;;;;;;;61.70;18.98;;;;;;;6.33;100.00;101023.25;5010257;23;20075;-87
2022/12/21 06:28:21;;;;;;;54.88;18.60;;;;;;;6.33;100.00;101025.84;5032778;28;20076;-88
2022/12/21 06:30:47;;;;;;;55.08;17.92;;;;;;;6.29;100.00;101018.09;5051678;28;20027;-87
2022/12/21 06:33:12;;;;;;;52.30;16.60;;;;;;;6.26;100.00;101026.72;5052573;28;20033;-87
2022/12/21 06:35:37;;;;;;;48.97;16.98;;;;;;;6.25;100.00;101025.03;5052458;28;20090;-87
2022/12/21 06:38:02;;;;;;;49.25;17.00;;;;;;;6.26;100.00;101028.47;5051494;28;20029;-88
2022/12/21 06:40:28;;;;;;;54.20;17.50;;;;;;;6.18;100.00;101018.16;5052291;28;20061;-87
2022/12/21 06:42:53;;;;;;;50.38;16.00;;;;;;;6.11;100.00;101011.22;5052382;28;20036;-87
2022/12/21 06:45:18;;;;;;;57.15;16.40;;;;;;;6.20;100.00;101012.94;5051681;28;20060;-87
2022/12/21 06:47:44;;;;;;;57.70;17.00;;;;;;;6.24;100.00;101020.69;5052033;28;20407;-88
2022/12/21 06:50:09;;;;;;;49.28;16.58;;;;;;;6.12;100.00;101007.81;5052228;28;20044;-87
2022/12/21 06:52:35;;;;;;;54.92;16.02;;;;;;;6.15;100.00;101022.44;5051250;28;20048;-88
2022/12/21 06:55:00;;;;;;;60.63;16.65;;;;;;;6.15;100.00;101020.72;5051996;28;20096;-88
2022/12/21 06:57:26;;;;;;;48.97;15.13;;;;;;;6.23;100.00;101031.91;5052271;28;20025;-87
2022/12/21 06:59:51;;;;;;;45.78;14.77;;;;;;;6.22;100.00;101040.56;5051429;28;20468;-87
2022/12/21 07:02:16;;;;;;;47.13;15.02;;;;;;;6.16;100.00;101035.41;5052331;28;20369;-88
2022/12/21 07:04:42;;;;;;;48.95;16.42;;;;;;;6.18;100.00;101041.44;5051229;28;20032;-87
2022/12/21 07:07:07;;;;;;;43.25;14.55;;;;;;;6.24;100.00;101048.31;5049792;28;20476;-88
2022/12/21 07:09:32;;;;;;;50.50;15.43;;;;;;;6.16;100.00;101032.81;5048630;28;20049;-88
2022/12/21 07:11:57;;;;;;;46.03;14.60;;;;;;;6.16;100.00;101035.41;5050978;28;20440;-87
2022/12/21 07:14:23;;;;;;;47.08;14.80;;;;;;;6.14;100.00;101031.06;5052216;28;20103;-87
2022/12/21 07:16:48;;;;;;;41.05;14.07;;;;;;;6.18;100.00;101044.03;5051147;28;20025;-88
2022/12/21 07:19:13;;;;;;;44.17;13.85;;;;;;;6.15;100.00;101049.22;5051500;28;20033;-88
2022/12/21 07:21:39;;;;;;;40.63;14.43;;;;;;;5.98;100.00;101028.50;5047415;28;20022;-87
2022/12/21 07:24:05;;;;;;;42.72;14.70;;;;;;;6.03;100.00;101051.81;5046225;28;20419;-87
2022/12/21 07:26:30;;;;;;;44.33;14.00;;;;;;;6.00;100.00;101044.91;5054685;28;20442;-88
2022/12/21 07:28:55;;;;;;;45.92;14.77;;;;;;;6.02;100.00;101044.91;5050953;28;20082;-87
2022/12/21 07:31:23;;;;;;;42.35;14.90;;;;;;;6.06;100.00;101060.44;5055833;28;20025;-89
2022/12/21 07:33:49;;;;;;;46.38;15.38;;;;;;;5.96;100.00;101047.50;5055548;28;20159;-91
2022/12/21 07:36:18;;;;;;;48.72;15.57;;;;;;;5.99;100.00;101061.31;5055849;28;20103;-89
2022/12/21 07:38:43;;;;;;;42.60;14.55;;;;;;;6.04;100.00;101069.06;5053789;28;20029;-80
2022/12/21 07:41:12;;;;;;;41.05;15.23;;;;;;;6.00;100.00;101065.59;5054714;28;20032;-87
2022/12/21 07:43:38;;;;;;;47.42;16.15;;;;;;;5.96;100.00;101073.41;5055743;28;20021;-88
2022/12/21 07:46:03;;;;;;;46.13;14.95;;;;;;;6.06;100.00;101094.09;5055140;28;20036;-86
2022/12/21 07:48:29;;;;;;;40.25;13.88;;;;;;;6.05;100.00;101094.94;5053923;28;20029;-87
2022/12/21 07:50:55;;;;;;;46.00;14.70;;;;;;;6.03;100.00;101081.13;5054515;28;20076;-87
2022/12/21 07:53:21;;;;;;;41.10;15.50;;;;;;;6.06;100.00;101096.66;5055804;28;20053;-87
2022/12/21 07:55:46;;;;;;;40.80;15.18;;;;;;;6.12;100.00;101106.16;5040665;28;20495;-88
2022/12/21 07:58:11;;;;;;;42.42;14.82;;;;;;;6.09;100.00;101099.25;5053572;28;20116;-88
2022/12/21 08:00:40;;;;;;;57.40;15.32;;;;;;;6.03;100.00;101093.22;5054750;28;20106;-86
2022/12/21 08:03:06;;;;;;;44.25;15.63;;;;;;;6.12;100.00;101106.16;5052822;28;20170;-86
2022/12/21 08:05:32;;;;;;;43.00;14.70;;;;;;;6.09;100.00;101111.34;5044282;28;20029;-86
2022/12/21 08:36:16;;;;;;;58.30;19.42;;;;;;;6.28;100.00;101107.00;4992549;28;20050;-87
2022/12/21 08:43:05;;;;;;;65.32;18.65;;;;;;;6.31;100.00;101106.97;4988398;28;20093;-86
2022/12/21 08:52:39;;;;;;;65.13;23.30;;;;;;;6.40;100.00;101111.28;4903976;29;20520;-86
2022/12/21 09:27:10;;;;;;;105.25;31.00;;;;;;;6.86;100.00;101091.28;5495084;23;20057;-86
2022/12/21 09:29:36;;;;;;;93.20;31.90;;;;;;;6.70;100.00;101069.78;5033711;28;20120;-86
2022/12/21 09:32:13;;;;;;;96.50;30.98;;;;;;;6.73;100.00;101067.13;5020346;28;20128;-87
2022/12/21 09:38:05;;;;;;;92.80;30.45;;;;;;;6.67;100.00;101072.38;5022270;28;20044;-86
2022/12/21 09:52:04;;;;;;;91.68;28.30;;;;;;;6.89;100.00;101105.97;5011267;28;20104;-86
2022/12/21 09:55:07;;;;;;;92.80;28.15;;;;;;;7.07;100.00;101116.25;5030647;28;20037;-86
2022/12/21 10:03:56;;;;;;;96.40;29.00;;;;;;;7.19;100.00;101123.09;5324420;23;20011;-81
2022/12/21 10:06:33;;;;;;;91.63;29.08;;;;;;;7.18;100.00;101127.44;5031290;28;20116;-89
2022/12/21 10:09:36;;;;;;;87.15;30.42;;;;;;;7.23;100.00;101122.22;5030605;28;20039;-88
2022/12/21 10:12:29;;;;;;;96.68;28.30;;;;;;;7.21;100.00;101123.97;5025655;28;20017;-89
2022/12/21 10:15:31;;;;;;;87.68;26.85;;;;;;;7.21;100.00;101123.97;5047414;28;20028;-86
2022/12/21 10:18:22;;;;;;;71.85;25.00;;;;;;;7.22;100.00;101121.34;5042059;28;20079;-87
2022/12/21 10:21:11;;;;;;;71.07;23.33;;;;;;;7.19;100.00;101131.75;5033246;28;20026;-87
2022/12/21 10:23:46;;;;;;;69.95;24.33;;;;;;;7.10;100.00;101121.44;5028540;28;20040;-87
2022/12/21 10:26:53;;;;;;;66.85;23.20;;;;;;;6.73;100.00;101056.78;5092084;23;20106;-87
2022/12/21 10:40:15;;;;;;;65.50;23.40;;;;;;;7.26;100.00;101122.22;5039874;28;20040;-87
2022/12/21 10:43:08;;;;;;;61.58;21.95;;;;;;;7.22;100.00;101108.38;5035721;28;20079;-87
2022/12/21 10:45:52;;;;;;;64.03;23.20;;;;;;;6.98;100.00;101061.84;5037324;28;20060;-87
2022/12/21 10:51:53;;;;;;;64.50;22.05;;;;;;;7.21;100.00;101092.84;5885376;23;20057;-87
2022/12/21 10:54:32;;;;;;;63.83;22.33;;;;;;;6.86;100.00;101043.78;5046136;28;20041;-87
2022/12/21 10:57:09;;;;;;;55.42;21.52;;;;;;;7.04;100.00;101064.41;5039370;28;20486;-86
2022/12/21 11:03:54;;;;;;;63.63;23.20;;;;;;;6.80;100.00;101005.78;5050492;28;20496;-86
2022/12/21 11:31:07;;;;;;;60.35;21.90;;;;;;;6.92;100.00;101004.88;5029832;28;20084;-87
2022/12/21 11:44:14;;;;;;;57.97;22.45;;;;;;;7.52;100.00;101065.00;5018059;28;20053;-88
2022/12/21 11:47:23;;;;;;;50.57;21.43;;;;;;;7.51;100.00;101071.88;5054669;28;20110;-87
2022/12/21 11:59:22;;;;;;;55.30;19.77;;;;;;;7.40;100.00;101067.66;5048264;23;20050;-88
2022/12/21 12:02:06;;;;;;;54.80;19.23;;;;;;;7.34;100.00;101057.31;5044825;28;20025;-89
2022/12/21 12:04:46;;;;;;;;;;;;;;;7.37;100.00;101059.91;5052300;28;20041;-89
2022/12/21 12:07:24;;;;;;;55.63;19.20;;;;;;;7.34;100.00;101053.00;5052180;28;20425;-86
2022/12/21 12:10:19;;;;;;;51.08;18.50;;;;;;;7.36;100.00;101053.84;5051412;28;20025;-88
2022/12/21 12:12:47;;;;;;;50.65;18.30;;;;;;;7.33;100.00;101042.66;5052820;28;20033;-90
2022/12/21 12:15:39;;;;;;;44.72;18.00;;;;;;;7.36;100.00;101040.88;5053516;28;20052;-89
2022/12/21 12:18:18;;;;;;;47.05;18.38;;;;;;;7.28;100.00;101014.13;5044808;23;20092;-88
2022/12/21 12:21:30;;;;;;;44.00;17.58;;;;;;;7.53;100.00;101032.13;5029535;28;20087;-89
2022/12/21 12:24:14;;;;;;;42.05;16.83;;;;;;;7.21;100.00;100969.22;5034668;28;20529;-88
2022/12/21 12:27:16;;;;;;;42.58;15.77;;;;;;;7.33;100.00;100983.00;5029354;28;20431;-90
2022/12/21 12:30:30;;;;;;;40.40;15.90;;;;;;;7.44;100.00;101010.56;5044095;28;20473;-90
2022/12/21 12:33:27;;;;;;;41.03;16.03;;;;;;;7.52;100.00;101020.88;5041629;28;20029;-89
2022/12/21 12:49:09;;;;;;;34.58;15.02;;;;;;;7.33;100.00;101003.75;5032055;28;20125;-88
2022/12/21 12:51:56;;;;;;;31.30;14.73;;;;;;;7.34;100.00;100995.94;5029962;28;20029;-90
2022/12/21 12:58:17;;;;;;;29.58;14.32;;;;;;;7.41;100.00;100999.34;5032544;28;20115;-90
2022/12/21 13:01:04;;;;;;;35.92;14.30;;;;;;;6.95;100.00;100933.13;5033923;28;20037;-91
2022/12/21 13:03:44;;;;;;;28.63;13.45;;;;;;;7.32;100.00;100997.66;5027668;28;20025;-89
2022/12/21 13:06:47;;;;;;;30.67;14.40;;;;;;;7.28;100.00;101004.63;5030832;28;20037;-84
2022/12/21 13:09:52;;;;;;;31.92;14.48;;;;;;;7.28;100.00;101007.22;5037355;28;20083;-88
2022/12/21 13:15:11;;;;;;;27.85;13.40;;;;;;;7.27;100.00;101008.09;5026814;23;20057;-88
2022/12/21 13:18:09;;;;;;;23.20;12.07;;;;;;;7.19;100.00;101002.13;5029554;28;20029;-89
2022/12/21 13:20:40;;;;;;;24.80;11.45;;;;;;;6.99;100.00;100968.53;5006173;28;20292;-90
2022/12/21 13:23:45;;;;;;;21.30;11.05;;;;;;;7.00;100.00;100987.56;5017338;28;20026;-90
2022/12/21 13:26:30;;;;;;;25.65;11.05;;;;;;;6.88;100.00;100972.06;5012759;28;20145;-89
2022/12/21 13:29:42;;;;;;;21.98;10.38;;;;;;;6.93;100.00;100985.84;5007497;28;20102;-90
2022/12/21 13:32:32;;;;;;;23.73;11.38;;;;;;;6.66;100.00;100948.88;5015917;28;20018;-90
2022/12/21 13:35:06;;;;;;;22.38;12.10;;;;;;;6.81;100.00;100973.84;5010382;28;20038;-90
2022/12/21 13:40:35;;;;;;;24.50;12.48;;;;;;;6.56;100.00;100905.75;5014141;28;20065;-89
2022/12/21 13:43:16;;;;;;;24.33;13.18;;;;;;;6.90;100.00;100929.72;5003412;28;20622;-89
2022/12/21 13:46:04;;;;;;;31.88;13.18;;;;;;;7.04;100.00;100965.91;5017520;28;20034;-90
2022/12/21 13:48:33;;;;;;;21.40;11.52;;;;;;;6.57;100.00;100908.34;5034175;28;20033;-90
2022/12/21 13:51:32;;;;;;;23.63;12.63;;;;;;;6.89;100.00;100981.56;5017381;28;20470;-89
2022/12/21 13:54:33;;;;;;;23.25;11.63;;;;;;;6.98;100.00;100986.69;5013152;28;20129;-89
2022/12/21 13:57:04;;;;;;;24.50;12.02;;;;;;;7.06;100.00;100986.63;4952089;28;20130;-88
2022/12/21 13:59:57;;;;;;;22.50;10.95;;;;;;;7.12;100.00;100996.97;5025198;28;20057;-90
2022/12/21 14:02:49;;;;;;;18.15;9.88;;;;;;;7.07;100.00;100986.63;5025264;28;20034;-89
2022/12/21 14:05:27;;;;;;;23.13;9.95;;;;;;;7.07;100.00;100985.78;4965280;28;20061;-89
2022/12/21 14:08:13;;;;;;;16.98;9.73;;;;;;;7.13;100.00;100996.06;5040554;28;20056;-89
2022/12/21 14:13:48;;;;;;;20.95;9.40;;;;;;;7.18;100.00;100997.78;5054096;23;20048;-89
2022/12/21 14:19:27;;;;;;;19.23;8.40;;;;;;;7.04;100.00;100991.84;5004486;28;20121;-88
2022/12/21 14:21:52;;;;;;;19.33;9.32;;;;;;;6.59;100.00;100916.09;4993339;28;20157;-84
2022/12/21 14:24:29;;;;;;;16.25;8.90;;;;;;;6.97;100.00;100978.06;4993769;28;20497;-84
2022/12/21 14:27:14;;;;;;;18.02;10.32;;;;;;;6.70;100.00;100940.22;5003313;28;20026;-86
2022/12/21 14:29:40;;;;;;;19.83;9.18;;;;;;;6.88;100.00;100974.66;4992802;28;20058;-84
2022/12/21 14:32:09;;;;;;;21.25;9.30;;;;;;;6.88;100.00;100978.09;4998799;28;20025;-86
2022/12/21 14:35:23;;;;;;;22.17;9.75;;;;;;;6.87;100.00;100966.03;5000886;28;20487;-89
2022/12/21 14:38:08;;;;;;;17.50;9.65;;;;;;;6.78;100.00;100953.97;4965511;28;20042;-89
2022/12/21 14:40:55;;;;;;;14.77;8.75;;;;;;;6.88;100.00;100962.56;4994358;28;20121;-89
2022/12/21 14:43:21;;;;;;;16.52;9.43;;;;;;;6.82;100.00;100953.97;4996830;28;20026;-89
2022/12/21 14:45:47;;;;;;;23.30;9.63;;;;;;;6.82;100.00;100954.81;4992782;28;20225;-83
2022/12/21 14:48:28;;;;;;;17.40;9.02;;;;;;;6.77;100.00;100948.81;4992072;28;20027;-89
2022/12/21 14:51:09;;;;;;;17.38;10.00;;;;;;;6.67;100.00;100958.38;4989561;28;20026;-88
2022/12/21 14:53:38;;;;;;;20.30;9.35;;;;;;;6.47;100.00;100927.38;4996698;28;20026;-89